Arsos M — V7IR2 — position and weather

sailwx.info

Track history (hours):
 
Tides and Currents Weather Stations Pressure Air Temp Water Temp Dewpoint Dewpoint Depression Visibility Wind Speed Wind Dir Waves Ship Positions

Arsos M

Last reported at 2018-Feb-18 00:03 UTC. Time now 2018-Feb-18 01:49 UTC.
Position N 35°54' E 014°52'.

Length 180 m; draft 10.7 m.

Type: Ship. MMSI: 538007316.

Date/timePositionNaut miles runAvg speedWind from/ knotsBaromVisibWave heightAir tempDewpointWater temp
2018-Feb-18 00:03N 35°54' E 014°52'0 0.4
2018-Feb-17 23:42N 35°54' E 014°51'1 3.1
2018-Feb-17 23:30N 35°53' E 014°51'4 7.9
2018-Feb-17 23:00N 35°51' E 014°47'5 9.4
2018-Feb-17 22:30N 35°49' E 014°42'5 9.8
2018-Feb-17 21:59N 35°48' E 014°36'2 0.0
2018-Feb-16 01:28N 35°49' E 014°34'1 1.3
2018-Feb-16 00:47N 35°48' E 014°35'2 2.0
2018-Feb-15 23:40N 35°48' E 014°37'1 3.0
2018-Feb-15 23:30N 35°48' E 014°38'0 0.5
2018-Feb-15 22:50N 35°48' E 014°38'1 2.2
2018-Feb-15 22:24N 35°48' E 014°39'1 1.2
2018-Feb-15 21:59N 35°48' E 014°40'2 5.2
2018-Feb-15 21:30N 35°49' E 014°43'3 6.2
2018-Feb-15 21:00N 35°51' E 014°46'5 9.9
2018-Feb-15 20:30N 35°55' E 014°49'3 0.5
2018-Feb-15 15:24N 35°57' E 014°51'0 0.0
2018-Feb-15 12:51N 35°57' E 014°51'0 0.0
2018-Feb-15 12:00N 35°57' E 014°51'0 0.0
2018-Feb-15 11:27N 35°57' E 014°51'0 0.0
2018-Feb-15 07:33N 35°57' E 014°51'0 0.0
2018-Feb-14 23:57N 35°57' E 014°51'0 0.0
2018-Feb-14 23:27N 35°57' E 014°51'0 0.0
2018-Feb-14 21:15N 35°57' E 014°51'0 0.0
2018-Feb-14 04:18N 35°57' E 014°51'0 0.0
2018-Feb-13 20:51N 35°57' E 014°51'0 0.0
2018-Feb-13 12:36N 35°57' E 014°51'0 1.9
2018-Feb-13 12:29N 35°57' E 014°51'43210.4
2018-Feb-11 18:58N 37°15' E 023°41'912.0
2018-Feb-11 18:11N 37°24' E 023°44'312.2
2018-Feb-11 17:58N 37°26' E 023°44'612.0
2018-Feb-11 17:30N 37°32' E 023°44'611.8
2018-Feb-11 17:00N 37°38' E 023°43'611.8
2018-Feb-11 16:31N 37°43' E 023°40'611.1
2018-Feb-11 16:01N 37°48' E 023°37'510.1
2018-Feb-11 15:30N 37°53' E 023°37'4 8.4
2018-Feb-11 15:01N 37°57' E 023°35'3 6.1
2018-Feb-11 14:30N 37°59' E 023°33'1 2.3
2018-Feb-11 13:59N 38°01' E 023°33'0 0.0
2018-Feb-11 13:29N 38°01' E 023°33'0 0.0
2018-Feb-11 12:59N 38°01' E 023°33'0 0.0
2018-Feb-11 12:29N 38°01' E 023°33'0 0.0
2018-Feb-11 11:59N 38°01' E 023°33'0 0.0
2018-Feb-11 11:29N 38°01' E 023°33'0 0.0
2018-Feb-11 10:59N 38°01' E 023°33'0 0.0
2018-Feb-11 10:29N 38°01' E 023°33'0 0.0
2018-Feb-11 09:59N 38°01' E 023°33'0 0.0
2018-Feb-11 09:29N 38°01' E 023°33'0 0.0
2018-Feb-11 08:59N 38°01' E 023°33'0 0.0
2018-Feb-11 08:29N 38°01' E 023°33'0 0.0
2018-Feb-11 07:59N 38°01' E 023°33'0 0.1
2018-Feb-11 07:29N 38°01' E 023°33'0 0.2
2018-Feb-11 06:59N 38°01' E 023°33'0 0.1
2018-Feb-11 06:29N 38°01' E 023°33'0 0.0
2018-Feb-11 05:59N 38°01' E 023°33'0 0.1
2018-Feb-11 05:29N 38°01' E 023°33'0 0.0
2018-Feb-11 04:59N 38°01' E 023°33'0 0.0
2018-Feb-11 04:29N 38°01' E 023°33'0 0.0
2018-Feb-11 03:59N 38°01' E 023°33'0 0.1
2018-Feb-11 03:29N 38°01' E 023°33'0 0.1
2018-Feb-11 02:59N 38°01' E 023°33'0 0.0
2018-Feb-11 02:29N 38°01' E 023°33'0 0.0
2018-Feb-11 01:59N 38°01' E 023°33'0 0.0
2018-Feb-11 01:29N 38°01' E 023°33'0 0.1
2018-Feb-11 00:59N 38°01' E 023°33'0 0.0
2018-Feb-11 00:29N 38°01' E 023°33'0 0.1
2018-Feb-10 23:59N 38°01' E 023°33'0 0.0
2018-Feb-10 23:29N 38°01' E 023°33'0 0.0
2018-Feb-10 22:59N 38°01' E 023°33'0 0.2
2018-Feb-10 22:29N 38°01' E 023°33'0 0.6
2018-Feb-10 22:00N 38°01' E 023°33'2 3.2
2018-Feb-10 21:28N 38°01' E 023°35'0 1.0
2018-Feb-10 20:58N 38°01' E 023°36'0 0.0
2018-Feb-10 20:28N 38°01' E 023°36'0 0.0
2018-Feb-10 19:58N 38°01' E 023°36'0 0.0
2018-Feb-10 19:28N 38°01' E 023°36'0 0.0
2018-Feb-10 18:58N 38°01' E 023°36'0 0.0
2018-Feb-10 18:22N 38°01' E 023°36'0 0.0
2018-Feb-10 17:58N 38°01' E 023°36'0 0.0
2018-Feb-10 17:28N 38°01' E 023°36'0 0.0
2018-Feb-10 16:58N 38°01' E 023°36'0 0.0
2018-Feb-10 16:28N 38°01' E 023°36'0 0.0
2018-Feb-10 15:55N 38°01' E 023°36'0 0.0
2018-Feb-10 15:28N 38°01' E 023°36'0 0.0
2018-Feb-10 14:52N 38°01' E 023°36'0 0.0
2018-Feb-10 14:19N 38°01' E 023°36'0 0.0
2018-Feb-10 13:58N 38°01' E 023°36'0 0.0
2018-Feb-10 13:28N 38°01' E 023°36'0 0.0
2018-Feb-10 12:55N 38°01' E 023°36'0 0.0
2018-Feb-10 12:28N 38°01' E 023°36'0 0.0
2018-Feb-10 11:58N 38°01' E 023°36'0 0.0
2018-Feb-10 11:28N 38°01' E 023°36'0 0.0
2018-Feb-10 10:58N 38°01' E 023°36'0 0.0
2018-Feb-10 10:25N 38°01' E 023°36'0 0.0
2018-Feb-10 09:58N 38°01' E 023°36'0 0.0
2018-Feb-10 09:28N 38°01' E 023°36'0 0.0
2018-Feb-10 08:58N 38°01' E 023°36'0 0.0
2018-Feb-10 08:28N 38°01' E 023°36'0 0.0
2018-Feb-10 07:58N 38°01' E 023°36'0 0.0
2018-Feb-10 07:28N 38°01' E 023°36'0 0.0
2018-Feb-10 06:58N 38°01' E 023°36'0 0.0
2018-Feb-10 06:28N 38°01' E 023°36'0 0.0
2018-Feb-10 05:58N 38°01' E 023°36'0 0.0
2018-Feb-10 05:28N 38°01' E 023°36'0 0.0
2018-Feb-10 04:58N 38°01' E 023°36'0 0.0
2018-Feb-10 04:25N 38°01' E 023°36'0 0.0
2018-Feb-10 03:58N 38°01' E 023°36'0 0.0
2018-Feb-10 03:28N 38°01' E 023°36'0 0.0
2018-Feb-10 02:58N 38°01' E 023°36'0 0.0
2018-Feb-10 02:25N 38°01' E 023°36'0 0.0
2018-Feb-10 01:58N 38°01' E 023°36'0 0.0
2018-Feb-10 01:28N 38°01' E 023°36'0 0.0
2018-Feb-10 00:58N 38°01' E 023°36'0 0.0
2018-Feb-10 00:28N 38°01' E 023°36'0 0.0
2018-Feb-09 23:58N 38°01' E 023°36'0 0.0
2018-Feb-09 23:28N 38°01' E 023°36'0 0.0
2018-Feb-09 22:58N 38°01' E 023°36'0 0.0
2018-Feb-09 22:43N 38°01' E 023°36'0 0.0
2018-Feb-09 10:30N 38°01' E 023°36'2 1.7
2018-Feb-09 09:00N 38°01' E 023°33'0 0.2
2018-Feb-09 08:30N 38°01' E 023°32'0 0.1
2018-Feb-09 07:30N 38°01' E 023°32'0 0.0
2018-Feb-09 07:00N 38°01' E 023°32'0 0.1
2018-Feb-09 06:31N 38°01' E 023°33'0 0.1
2018-Feb-09 06:01N 38°01' E 023°32'0 0.0
2018-Feb-09 05:00N 38°01' E 023°32'0 0.1
2018-Feb-09 04:30N 38°01' E 023°33'0 0.1
2018-Feb-09 04:01N 38°01' E 023°33'0 0.0
2018-Feb-09 02:31N 38°01' E 023°33'0 0.1
2018-Feb-09 02:00N 38°01' E 023°33'0 0.1
2018-Feb-09 01:30N 38°01' E 023°33'0 0.0
2018-Feb-08 23:31N 38°01' E 023°33'0 0.0
2018-Feb-08 22:31N 38°01' E 023°33'0 0.0
2018-Feb-08 21:00N 38°01' E 023°33'0 0.0
2018-Feb-08 18:00N 38°01' E 023°33'0 0.0
2018-Feb-08 17:30N 38°01' E 023°33'0 0.3
2018-Feb-08 16:00N 38°00' E 023°33'3 6.9
2018-Feb-08 15:30N 37°57' E 023°34'3 6.1
2018-Feb-08 15:00N 37°54' E 023°36'2 4.4
2018-Feb-08 14:30N 37°53' E 023°38'5 9.7
2018-Feb-08 14:00N 37°48' E 023°41'611.5
2018-Feb-08 13:30N 37°43' E 023°44'713.2
2018-Feb-08 13:00N 37°37' E 023°45'  
Track history (hours):
 
Tides and Currents Weather Stations Pressure Air Temp Water Temp Dewpoint Dewpoint Depression Visibility Wind Speed Wind Dir Waves Ship Positions

Arsos M

Last reported at 2018-Feb-18 00:03 UTC. Time now 2018-Feb-18 01:49 UTC.
Position N 35°54' E 014°52'.

Length 180 m; draft 10.7 m.

Type: Ship. MMSI: 538007316.

Date/timePositionNaut miles runAvg speedWind from/ knotsBaromVisibWave heightAir tempDewpointWater temp
2018-Feb-18 00:03N 35°54' E 014°52'0 0.4
2018-Feb-17 23:42N 35°54' E 014°51'1 3.1
2018-Feb-17 23:30N 35°53' E 014°51'4 7.9
2018-Feb-17 23:00N 35°51' E 014°47'5 9.4
2018-Feb-17 22:30N 35°49' E 014°42'5 9.8
2018-Feb-17 21:59N 35°48' E 014°36'2 0.0
2018-Feb-16 01:28N 35°49' E 014°34'1 1.3
2018-Feb-16 00:47N 35°48' E 014°35'2 2.0
2018-Feb-15 23:40N 35°48' E 014°37'1 3.0
2018-Feb-15 23:30N 35°48' E 014°38'0 0.5
2018-Feb-15 22:50N 35°48' E 014°38'1 2.2
2018-Feb-15 22:24N 35°48' E 014°39'1 1.2
2018-Feb-15 21:59N 35°48' E 014°40'2 5.2
2018-Feb-15 21:30N 35°49' E 014°43'3 6.2
2018-Feb-15 21:00N 35°51' E 014°46'5 9.9
2018-Feb-15 20:30N 35°55' E 014°49'3 0.5
2018-Feb-15 15:24N 35°57' E 014°51'0 0.0
2018-Feb-15 12:51N 35°57' E 014°51'0 0.0
2018-Feb-15 12:00N 35°57' E 014°51'0 0.0
2018-Feb-15 11:27N 35°57' E 014°51'0 0.0
2018-Feb-15 07:33N 35°57' E 014°51'0 0.0
2018-Feb-14 23:57N 35°57' E 014°51'0 0.0
2018-Feb-14 23:27N 35°57' E 014°51'0 0.0
2018-Feb-14 21:15N 35°57' E 014°51'0 0.0
2018-Feb-14 04:18N 35°57' E 014°51'0 0.0
2018-Feb-13 20:51N 35°57' E 014°51'0 0.0
2018-Feb-13 12:36N 35°57' E 014°51'0 1.9
2018-Feb-13 12:29N 35°57' E 014°51'43210.4
2018-Feb-11 18:58N 37°15' E 023°41'912.0
2018-Feb-11 18:11N 37°24' E 023°44'312.2
2018-Feb-11 17:58N 37°26' E 023°44'612.0
2018-Feb-11 17:30N 37°32' E 023°44'611.8
2018-Feb-11 17:00N 37°38' E 023°43'611.8
2018-Feb-11 16:31N 37°43' E 023°40'611.1
2018-Feb-11 16:01N 37°48' E 023°37'510.1
2018-Feb-11 15:30N 37°53' E 023°37'4 8.4
2018-Feb-11 15:01N 37°57' E 023°35'3 6.1
2018-Feb-11 14:30N 37°59' E 023°33'1 2.3
2018-Feb-11 13:59N 38°01' E 023°33'0 0.0
2018-Feb-11 13:29N 38°01' E 023°33'0 0.0
2018-Feb-11 12:59N 38°01' E 023°33'0 0.0
2018-Feb-11 12:29N 38°01' E 023°33'0 0.0
2018-Feb-11 11:59N 38°01' E 023°33'0 0.0
2018-Feb-11 11:29N 38°01' E 023°33'0 0.0
2018-Feb-11 10:59N 38°01' E 023°33'0 0.0
2018-Feb-11 10:29N 38°01' E 023°33'0 0.0
2018-Feb-11 09:59N 38°01' E 023°33'0 0.0
2018-Feb-11 09:29N 38°01' E 023°33'0 0.0
2018-Feb-11 08:59N 38°01' E 023°33'0 0.0
2018-Feb-11 08:29N 38°01' E 023°33'0 0.0
2018-Feb-11 07:59N 38°01' E 023°33'0 0.1
2018-Feb-11 07:29N 38°01' E 023°33'0 0.2
2018-Feb-11 06:59N 38°01' E 023°33'0 0.1
2018-Feb-11 06:29N 38°01' E 023°33'0 0.0
2018-Feb-11 05:59N 38°01' E 023°33'0 0.1
2018-Feb-11 05:29N 38°01' E 023°33'0 0.0
2018-Feb-11 04:59N 38°01' E 023°33'0 0.0
2018-Feb-11 04:29N 38°01' E 023°33'0 0.0
2018-Feb-11 03:59N 38°01' E 023°33'0 0.1
2018-Feb-11 03:29N 38°01' E 023°33'0 0.1
2018-Feb-11 02:59N 38°01' E 023°33'0 0.0
2018-Feb-11 02:29N 38°01' E 023°33'0 0.0
2018-Feb-11 01:59N 38°01' E 023°33'0 0.0
2018-Feb-11 01:29N 38°01' E 023°33'0 0.1
2018-Feb-11 00:59N 38°01' E 023°33'0 0.0
2018-Feb-11 00:29N 38°01' E 023°33'0 0.1
2018-Feb-10 23:59N 38°01' E 023°33'0 0.0
2018-Feb-10 23:29N 38°01' E 023°33'0 0.0
2018-Feb-10 22:59N 38°01' E 023°33'0 0.2
2018-Feb-10 22:29N 38°01' E 023°33'0 0.6
2018-Feb-10 22:00N 38°01' E 023°33'2 3.2
2018-Feb-10 21:28N 38°01' E 023°35'0 1.0
2018-Feb-10 20:58N 38°01' E 023°36'0 0.0
2018-Feb-10 20:28N 38°01' E 023°36'0 0.0
2018-Feb-10 19:58N 38°01' E 023°36'0 0.0
2018-Feb-10 19:28N 38°01' E 023°36'0 0.0
2018-Feb-10 18:58N 38°01' E 023°36'0 0.0
2018-Feb-10 18:22N 38°01' E 023°36'0 0.0
2018-Feb-10 17:58N 38°01' E 023°36'0 0.0
2018-Feb-10 17:28N 38°01' E 023°36'0 0.0
2018-Feb-10 16:58N 38°01' E 023°36'0 0.0
2018-Feb-10 16:28N 38°01' E 023°36'0 0.0
2018-Feb-10 15:55N 38°01' E 023°36'0 0.0
2018-Feb-10 15:28N 38°01' E 023°36'0 0.0
2018-Feb-10 14:52N 38°01' E 023°36'0 0.0
2018-Feb-10 14:19N 38°01' E 023°36'0 0.0
2018-Feb-10 13:58N 38°01' E 023°36'0 0.0
2018-Feb-10 13:28N 38°01' E 023°36'0 0.0
2018-Feb-10 12:55N 38°01' E 023°36'0 0.0
2018-Feb-10 12:28N 38°01' E 023°36'0 0.0
2018-Feb-10 11:58N 38°01' E 023°36'0 0.0
2018-Feb-10 11:28N 38°01' E 023°36'0 0.0
2018-Feb-10 10:58N 38°01' E 023°36'0 0.0
2018-Feb-10 10:25N 38°01' E 023°36'0 0.0
2018-Feb-10 09:58N 38°01' E 023°36'0 0.0
2018-Feb-10 09:28N 38°01' E 023°36'0 0.0
2018-Feb-10 08:58N 38°01' E 023°36'0 0.0
2018-Feb-10 08:28N 38°01' E 023°36'0 0.0
2018-Feb-10 07:58N 38°01' E 023°36'0 0.0
2018-Feb-10 07:28N 38°01' E 023°36'0 0.0
2018-Feb-10 06:58N 38°01' E 023°36'0 0.0
2018-Feb-10 06:28N 38°01' E 023°36'0 0.0
2018-Feb-10 05:58N 38°01' E 023°36'0 0.0
2018-Feb-10 05:28N 38°01' E 023°36'0 0.0
2018-Feb-10 04:58N 38°01' E 023°36'0 0.0
2018-Feb-10 04:25N 38°01' E 023°36'0 0.0
2018-Feb-10 03:58N 38°01' E 023°36'0 0.0
2018-Feb-10 03:28N 38°01' E 023°36'0 0.0
2018-Feb-10 02:58N 38°01' E 023°36'0 0.0
2018-Feb-10 02:25N 38°01' E 023°36'0 0.0
2018-Feb-10 01:58N 38°01' E 023°36'0 0.0
2018-Feb-10 01:28N 38°01' E 023°36'0 0.0
2018-Feb-10 00:58N 38°01' E 023°36'0 0.0
2018-Feb-10 00:28N 38°01' E 023°36'0 0.0
2018-Feb-09 23:58N 38°01' E 023°36'0 0.0
2018-Feb-09 23:28N 38°01' E 023°36'0 0.0
2018-Feb-09 22:58N 38°01' E 023°36'0 0.0
2018-Feb-09 22:43N 38°01' E 023°36'0 0.0
2018-Feb-09 10:30N 38°01' E 023°36'2 1.7
2018-Feb-09 09:00N 38°01' E 023°33'0 0.2
2018-Feb-09 08:30N 38°01' E 023°32'0 0.1
2018-Feb-09 07:30N 38°01' E 023°32'0 0.0
2018-Feb-09 07:00N 38°01' E 023°32'0 0.1
2018-Feb-09 06:31N 38°01' E 023°33'0 0.1
2018-Feb-09 06:01N 38°01' E 023°32'0 0.0
2018-Feb-09 05:00N 38°01' E 023°32'0 0.1
2018-Feb-09 04:30N 38°01' E 023°33'0 0.1
2018-Feb-09 04:01N 38°01' E 023°33'0 0.0
2018-Feb-09 02:31N 38°01' E 023°33'0 0.1
2018-Feb-09 02:00N 38°01' E 023°33'0 0.1
2018-Feb-09 01:30N 38°01' E 023°33'0 0.0
2018-Feb-08 23:31N 38°01' E 023°33'0 0.0
2018-Feb-08 22:31N 38°01' E 023°33'0 0.0
2018-Feb-08 21:00N 38°01' E 023°33'0 0.0
2018-Feb-08 18:00N 38°01' E 023°33'0 0.0
2018-Feb-08 17:30N 38°01' E 023°33'0 0.3
2018-Feb-08 16:00N 38°00' E 023°33'3 6.9
2018-Feb-08 15:30N 37°57' E 023°34'3 6.1
2018-Feb-08 15:00N 37°54' E 023°36'2 4.4
2018-Feb-08 14:30N 37°53' E 023°38'5 9.7
2018-Feb-08 14:00N 37°48' E 023°41'611.5
2018-Feb-08 13:30N 37°43' E 023°44'713.2
2018-Feb-08 13:00N 37°37' E 023°45'  

Dump ship's entire track history